Time;durP1;ratioP1;P1;durP2;ratioP2;P2;SDS_P1;SDS_P2;PMS_P1;PMS_P2;Temp;Humidity;BMP_temperature;BMP_pressure;BME280_temperature;BME280_humidity;BME280_pressure;Samples;Min_cycle;Max_cycle;Signal;HPM_P1;HPM_P2
2021/10/26 00:01:13;;;;;;;7.13;6.47;;;10.70;99.90;;;;;;5033900;28;20609;-59
2021/10/26 00:03:39;;;;;;;7.90;6.30;;;10.60;99.90;;;;;;5033712;28;20441;-58
2021/10/26 00:06:04;;;;;;;6.77;6.13;;;10.50;99.90;;;;;;5033856;28;20168;-56
2021/10/26 00:08:30;;;;;;;6.87;6.17;;;10.40;99.90;;;;;;5033927;28;20226;-58
2021/10/26 00:10:55;;;;;;;7.70;6.93;;;10.50;99.90;;;;;;5034189;28;20168;-55
2021/10/26 00:13:23;;;;;;;9.97;6.97;;;10.60;99.90;;;;;;5034262;28;20226;-56
2021/10/26 00:15:49;;;;;;;7.43;6.50;;;10.70;99.90;;;;;;5033174;28;20180;-58
2021/10/26 00:18:15;;;;;;;11.17;6.93;;;10.80;99.90;;;;;;5033618;28;20527;-58
2021/10/26 00:20:41;;;;;;;7.97;6.27;;;10.80;99.90;;;;;;5033367;28;20449;-57
2021/10/26 00:23:07;;;;;;;9.40;6.30;;;10.70;99.90;;;;;;5033519;28;20446;-53
2021/10/26 00:25:33;;;;;;;6.60;5.90;;;10.80;99.90;;;;;;5033382;28;20218;-58
2021/10/26 00:27:59;;;;;;;6.77;6.17;;;10.90;99.90;;;;;;5033404;28;20414;-56
2021/10/26 00:30:25;;;;;;;9.67;7.57;;;11.00;99.90;;;;;;5032894;28;20189;-58
2021/10/26 00:32:51;;;;;;;9.43;7.47;;;11.00;99.90;;;;;;5033606;28;20194;-56
2021/10/26 00:35:17;;;;;;;8.90;6.57;;;11.00;99.90;;;;;;5033213;28;20413;-55
2021/10/26 00:37:45;;;;;;;8.97;7.57;;;11.10;99.90;;;;;;5033059;28;20441;-55
2021/10/26 00:40:11;;;;;;;6.60;6.00;;;11.20;99.90;;;;;;5033177;28;20171;-56
2021/10/26 00:42:37;;;;;;;8.07;6.43;;;11.40;99.90;;;;;;5033135;28;20416;-59
2021/10/26 00:45:03;;;;;;;6.33;5.63;;;11.50;99.90;;;;;;5032904;28;20402;-57
2021/10/26 00:47:29;;;;;;;6.40;5.80;;;11.50;99.90;;;;;;5033154;28;20175;-58
2021/10/26 00:49:54;;;;;;;8.73;6.17;;;11.50;99.90;;;;;;5033597;28;20425;-56
2021/10/26 00:52:20;;;;;;;7.27;6.47;;;11.50;99.90;;;;;;5033107;28;20491;-57
2021/10/26 00:54:46;;;;;;;7.47;6.57;;;11.60;99.90;;;;;;5033013;28;20199;-56
2021/10/26 00:57:12;;;;;;;6.87;6.27;;;11.50;99.90;;;;;;5033044;28;20206;-58
2021/10/26 00:59:38;;;;;;;8.00;6.43;;;11.60;99.90;;;;;;5018975;28;20214;-58
2021/10/26 01:02:04;;;;;;;8.97;6.27;;;11.60;99.90;;;;;;5013295;28;20895;-55
2021/10/26 01:04:30;;;;;;;7.53;6.77;;;11.40;99.90;;;;;;4995702;28;20246;-57
2021/10/26 01:06:56;;;;;;;9.37;6.67;;;11.30;99.90;;;;;;4995618;28;20403;-56
2021/10/26 01:09:22;;;;;;;6.90;6.20;;;11.40;99.90;;;;;;5025730;28;20175;-58
2021/10/26 01:11:48;;;;;;;7.20;6.50;;;11.60;99.90;;;;;;5033009;28;20417;-57
2021/10/26 01:14:15;;;;;;;6.87;6.17;;;11.60;99.90;;;;;;5032475;28;20679;-56
2021/10/26 01:16:41;;;;;;;7.10;6.40;;;11.70;99.90;;;;;;5032894;28;20199;-55
2021/10/26 01:19:07;;;;;;;6.63;5.93;;;11.80;99.90;;;;;;5032715;28;20439;-56
2021/10/26 01:21:33;;;;;;;6.73;6.10;;;11.90;99.90;;;;;;5032961;28;20551;-52
2021/10/26 01:23:59;;;;;;;7.30;6.60;;;11.80;99.90;;;;;;5032672;28;20935;-56
2021/10/26 01:26:24;;;;;;;7.40;6.60;;;11.80;99.90;;;;;;5032820;28;20497;-56
2021/10/26 01:28:50;;;;;;;8.60;6.67;;;11.90;99.90;;;;;;5032473;28;20181;-57
2021/10/26 01:31:16;;;;;;;8.57;6.37;;;12.00;99.90;;;;;;5033269;28;20413;-53
2021/10/26 01:33:41;;;;;;;7.37;6.60;;;12.00;99.90;;;;;;5033705;28;20191;-54
2021/10/26 01:36:08;;;;;;;6.37;5.70;;;12.00;99.90;;;;;;5002775;28;20209;-56
2021/10/26 01:38:33;;;;;;;7.37;6.70;;;12.00;99.90;;;;;;5036515;28;20548;-56
2021/10/26 01:40:59;;;;;;;6.43;5.80;;;12.00;99.90;;;;;;5036374;28;20416;-57
2021/10/26 01:43:25;;;;;;;6.50;5.90;;;11.90;99.90;;;;;;5036479;28;20210;-54
2021/10/26 01:45:51;;;;;;;6.73;6.13;;;12.00;99.90;;;;;;5035950;28;20587;-57
2021/10/26 01:48:17;;;;;;;8.03;6.43;;;12.10;99.90;;;;;;5036493;28;20180;-57
2021/10/26 01:50:43;;;;;;;6.47;5.87;;;12.10;99.90;;;;;;5036096;28;20895;-58
2021/10/26 01:53:10;;;;;;;8.40;6.60;;;12.10;99.90;;;;;;5030754;28;20445;-56
2021/10/26 01:55:36;;;;;;;7.10;6.13;;;12.00;99.90;;;;;;5016102;28;20174;-54
2021/10/26 01:58:02;;;;;;;8.47;6.60;;;12.10;99.90;;;;;;5016373;28;20443;-58
2021/10/26 02:00:28;;;;;;;7.00;6.27;;;12.10;99.90;;;;;;5015913;28;20454;-55
2021/10/26 02:02:54;;;;;;;7.93;7.20;;;12.20;99.90;;;;;;5015987;28;20518;-57
2021/10/26 02:05:19;;;;;;;6.67;5.77;;;12.20;99.90;;;;;;5016045;28;20254;-57
2021/10/26 02:07:46;;;;;;;7.60;6.90;;;12.10;99.90;;;;;;5016324;28;20553;-57
2021/10/26 02:10:12;;;;;;;6.63;5.90;;;12.10;99.90;;;;;;5035446;28;20205;-55
2021/10/26 02:12:39;;;;;;;9.00;8.10;;;12.10;99.90;;;;;;5035913;28;20865;-58
2021/10/26 02:15:06;;;;;;;8.50;6.33;;;12.20;99.90;;;;;;5035495;28;20406;-52
2021/10/26 02:17:32;;;;;;;8.70;7.80;;;12.10;99.90;;;;;;5036483;28;20806;-53
2021/10/26 02:19:58;;;;;;;10.03;7.67;;;12.10;99.90;;;;;;5036117;28;20402;-57
2021/10/26 02:22:24;;;;;;;10.60;9.40;;;12.10;99.90;;;;;;5035598;28;20413;-58
2021/10/26 02:24:49;;;;;;;9.40;6.90;;;12.30;99.90;;;;;;5035632;28;20179;-58
2021/10/26 02:27:15;;;;;;;8.33;7.43;;;12.30;99.90;;;;;;5035455;28;20527;-58
2021/10/26 02:29:41;;;;;;;8.30;7.40;;;12.30;99.90;;;;;;5035135;28;20212;-55
2021/10/26 02:32:07;;;;;;;8.83;8.03;;;12.40;99.90;;;;;;5035521;28;20624;-57
2021/10/26 02:34:33;;;;;;;9.00;7.97;;;12.30;99.90;;;;;;5035229;28;20213;-56
2021/10/26 02:36:59;;;;;;;10.97;9.70;;;12.40;99.90;;;;;;5035018;28;20825;-56
2021/10/26 02:39:25;;;;;;;10.63;8.90;;;12.30;99.90;;;;;;5034948;28;20417;-57
2021/10/26 02:41:50;;;;;;;12.47;9.70;;;12.20;99.90;;;;;;5035328;28;20251;-57
2021/10/26 02:44:17;;;;;;;9.50;8.60;;;12.20;99.90;;;;;;5034575;28;20452;-55
2021/10/26 02:46:42;;;;;;;12.50;11.30;;;12.20;99.90;;;;;;5034121;28;20181;-52
2021/10/26 02:49:09;;;;;;;9.37;8.57;;;12.20;99.90;;;;;;5017067;28;20420;-58
2021/10/26 02:51:35;;;;;;;9.13;8.23;;;12.20;99.90;;;;;;5035157;28;20540;-56
2021/10/26 02:54:01;;;;;;;12.57;11.27;;;12.30;99.90;;;;;;5034895;28;20536;-52
2021/10/26 02:56:27;;;;;;;16.43;11.30;;;12.30;99.90;;;;;;5034818;28;21026;-57
2021/10/26 02:58:53;;;;;;;9.50;8.60;;;12.30;99.90;;;;;;5034682;28;20249;-56
2021/10/26 03:01:19;;;;;;;13.70;11.03;;;12.30;99.90;;;;;;5033852;28;20417;-55
2021/10/26 03:03:44;;;;;;;10.43;9.33;;;12.20;99.90;;;;;;5025882;28;20206;-53
2021/10/26 03:06:10;;;;;;;9.60;8.60;;;12.20;99.90;;;;;;5034760;28;20174;-58
2021/10/26 03:08:36;;;;;;;10.73;8.63;;;12.30;99.90;;;;;;5031394;28;20187;-57
2021/10/26 03:11:02;;;;;;;11.03;10.03;;;12.30;99.90;;;;;;5034449;28;20410;-58
2021/10/26 03:13:27;;;;;;;10.73;9.70;;;12.30;99.90;;;;;;5034531;28;20270;-55
2021/10/26 03:15:53;;;;;;;10.80;9.70;;;12.30;99.90;;;;;;5034152;28;20227;-56
2021/10/26 03:18:19;;;;;;;11.30;10.20;;;12.20;99.90;;;;;;5034138;28;20728;-57
2021/10/26 03:20:44;;;;;;;10.57;9.57;;;12.10;99.90;;;;;;5034306;28;20168;-56
2021/10/26 03:23:10;;;;;;;12.00;10.33;;;12.00;99.90;;;;;;5034179;28;20188;-51
2021/10/26 03:25:36;;;;;;;10.70;9.60;;;11.90;99.90;;;;;;5034276;28;20191;-56
2021/10/26 03:28:02;;;;;;;10.30;9.40;;;11.90;99.90;;;;;;5034004;28;20430;-54
2021/10/26 03:30:27;;;;;;;11.90;10.33;;;11.80;99.90;;;;;;5016042;28;20553;-55
2021/10/26 03:32:53;;;;;;;12.83;10.80;;;11.90;99.90;;;;;;5033935;28;20226;-53
2021/10/26 03:35:19;;;;;;;11.43;9.80;;;11.90;99.90;;;;;;5034361;28;20185;-54
2021/10/26 03:37:45;;;;;;;10.30;9.30;;;12.00;99.90;;;;;;5034110;28;20199;-55
2021/10/26 03:40:12;;;;;;;12.10;10.57;;;12.10;99.90;;;;;;5033913;28;20410;-57
2021/10/26 03:42:39;;;;;;;11.03;9.90;;;12.10;99.90;;;;;;5034019;28;20464;-54
2021/10/26 03:45:07;;;;;;;12.30;11.07;;;12.10;99.90;;;;;;5033866;28;20395;-56
2021/10/26 03:47:38;;;;;;;14.53;9.50;;;12.00;99.90;;;;;;5034129;28;20778;-52
2021/10/26 03:50:04;;;;;;;10.40;9.40;;;12.10;99.90;;;;;;5033796;28;20862;-59
2021/10/26 03:52:29;;;;;;;10.37;9.40;;;12.10;99.90;;;;;;5015766;28;20428;-58
2021/10/26 03:54:56;;;;;;;10.83;9.80;;;12.10;99.90;;;;;;5033920;28;20471;-56
2021/10/26 03:57:22;;;;;;;10.50;9.50;;;12.10;99.90;;;;;;5033369;28;20207;-56
2021/10/26 03:59:47;;;;;;;11.93;10.83;;;12.10;99.90;;;;;;5033425;28;20415;-57
2021/10/26 04:02:20;;;;;;;11.10;10.00;;;12.10;99.90;;;;;;5033424;28;20213;-58
2021/10/26 04:04:46;;;;;;;11.90;10.63;;;12.10;99.90;;;;;;5033690;28;20218;-56
2021/10/26 04:07:12;;;;;;;10.53;9.43;;;12.10;99.90;;;;;;5033760;28;20421;-54
2021/10/26 04:12:23;;;;;;;10.70;8.73;;;12.00;99.90;;;;;;5033504;28;20151;-54
2021/10/26 04:14:50;;;;;;;9.60;8.70;;;12.00;99.90;;;;;;5033486;28;20753;-56
2021/10/26 04:17:16;;;;;;;9.50;8.60;;;11.90;99.90;;;;;;5033599;28;20809;-53
2021/10/26 04:19:41;;;;;;;10.20;9.27;;;11.90;99.90;;;;;;5034289;28;20401;-54
2021/10/26 04:22:08;;;;;;;11.00;10.00;;;11.80;99.90;;;;;;5034355;28;20171;-58
2021/10/26 04:24:34;;;;;;;10.60;9.50;;;11.80;99.90;;;;;;5033733;28;20217;-56
2021/10/26 04:26:59;;;;;;;10.17;9.17;;;11.80;99.90;;;;;;5033458;28;20764;-56
2021/10/26 04:29:25;;;;;;;9.93;8.93;;;11.80;99.90;;;;;;5032730;28;20410;-57
2021/10/26 04:31:51;;;;;;;12.87;10.90;;;11.70;99.90;;;;;;5033486;28;20628;-56
2021/10/26 04:34:16;;;;;;;15.77;13.50;;;11.70;99.90;;;;;;5033068;28;20687;-54
2021/10/26 04:36:42;;;;;;;23.30;18.23;;;11.80;99.90;;;;;;5033089;28;20198;-57
2021/10/26 04:39:07;;;;;;;25.67;19.47;;;11.70;99.90;;;;;;5033273;28;20315;-55
2021/10/26 04:41:36;;;;;;;24.33;21.17;;;11.70;99.90;;;;;;5033264;28;20649;-57
2021/10/26 04:44:03;;;;;;;19.47;17.37;;;11.70;99.90;;;;;;5032896;28;20206;-56
2021/10/26 04:46:33;;;;;;;21.13;16.77;;;11.70;99.90;;;;;;5032521;28;20493;-56
2021/10/26 04:48:59;;;;;;;17.57;15.67;;;11.70;99.90;;;;;;5033043;28;20496;-58
2021/10/26 04:51:25;;;;;;;21.10;16.60;;;11.80;99.90;;;;;;5033072;28;20829;-57
2021/10/26 04:53:50;;;;;;;16.17;14.40;;;11.70;99.90;;;;;;5032915;28;20516;-57
2021/10/26 04:56:16;;;;;;;19.43;14.97;;;11.70;99.90;;;;;;5032819;28;20242;-56
2021/10/26 04:58:41;;;;;;;17.70;14.90;;;11.70;99.90;;;;;;5033330;28;20173;-55
2021/10/26 05:01:07;;;;;;;12.57;11.33;;;11.70;99.90;;;;;;5032883;28;20173;-55
2021/10/26 05:03:33;;;;;;;13.43;12.00;;;11.60;99.90;;;;;;5032907;28;20179;-54
2021/10/26 05:05:58;;;;;;;16.33;13.93;;;11.60;99.90;;;;;;5032769;28;20600;-52
2021/10/26 05:08:25;;;;;;;15.40;13.47;;;11.60;99.90;;;;;;5033015;28;20175;-55
2021/10/26 05:10:51;;;;;;;15.80;12.50;;;11.60;99.90;;;;;;5036776;28;20218;-58
2021/10/26 05:13:16;;;;;;;14.30;12.80;;;11.60;99.90;;;;;;5036392;28;20806;-56
2021/10/26 05:15:42;;;;;;;13.13;11.80;;;11.70;99.90;;;;;;5036366;28;20171;-55
2021/10/26 05:18:11;;;;;;;13.60;11.43;;;11.60;99.90;;;;;;5025164;28;20199;-58
2021/10/26 05:20:38;;;;;;;15.03;13.50;;;11.60;99.90;;;;;;5016649;28;20415;-56
2021/10/26 05:23:05;;;;;;;22.10;15.23;;;11.60;99.90;;;;;;5016592;28;20954;-52
2021/10/26 05:25:32;;;;;;;21.30;17.80;;;11.60;99.90;;;;;;4999301;28;20395;-57
2021/10/26 05:27:57;;;;;;;16.83;15.03;;;11.50;99.90;;;;;;5016782;28;20435;-58
2021/10/26 05:30:24;;;;;;;15.70;13.80;;;11.50;99.90;;;;;;5016318;28;20478;-57
2021/10/26 05:32:49;;;;;;;13.90;11.50;;;11.40;99.90;;;;;;5016586;28;20188;-55
2021/10/26 05:35:15;;;;;;;15.63;12.73;;;11.30;99.90;;;;;;5016663;28;20553;-58
2021/10/26 05:37:40;;;;;;;13.07;11.37;;;11.20;99.90;;;;;;5016601;28;20196;-55
2021/10/26 05:40:06;;;;;;;13.07;11.77;;;11.30;99.90;;;;;;5035618;28;20176;-55
2021/10/26 05:42:32;;;;;;;12.17;10.70;;;11.30;99.90;;;;;;5035847;28;20253;-53
2021/10/26 05:44:58;;;;;;;11.73;10.53;;;11.40;99.90;;;;;;5055512;23;20513;-55
2021/10/26 05:47:24;;;;;;;12.80;10.90;;;11.40;99.90;;;;;;5021929;28;20419;-56
2021/10/26 05:49:49;;;;;;;17.80;13.83;;;11.50;99.90;;;;;;5021498;28;20233;-51
2021/10/26 05:52:15;;;;;;;13.03;11.70;;;11.60;99.90;;;;;;5001476;28;20212;-54
2021/10/26 05:54:40;;;;;;;13.03;11.60;;;11.60;99.90;;;;;;5019928;28;20195;-53
2021/10/26 05:57:06;;;;;;;11.83;10.70;;;11.60;99.90;;;;;;5019341;28;20200;-49
2021/10/26 05:59:32;;;;;;;11.43;10.37;;;11.60;99.90;;;;;;5019676;28;20581;-48
2021/10/26 06:01:57;;;;;;;13.17;11.87;;;11.60;99.90;;;;;;5019481;28;20175;-49
2021/10/26 06:04:24;;;;;;;11.80;10.57;;;11.70;99.90;;;;;;5020260;28;20598;-48
2021/10/26 06:06:49;;;;;;;11.03;10.00;;;11.70;99.90;;;;;;5021115;28;20176;-49
2021/10/26 06:09:17;;;;;;;12.37;11.17;;;11.70;99.90;;;;;;5030186;28;20450;-48
2021/10/26 06:11:45;;;;;;;15.90;12.20;;;11.80;99.90;;;;;;5035927;28;20171;-49
2021/10/26 06:14:10;;;;;;;12.90;11.60;;;11.70;99.90;;;;;;5035904;28;20425;-49
2021/10/26 06:16:37;;;;;;;12.97;11.73;;;11.70;99.90;;;;;;5035619;28;20841;-48
2021/10/26 06:19:03;;;;;;;13.77;12.03;;;11.70;99.90;;;;;;5035622;28;20155;-48
2021/10/26 06:21:29;;;;;;;13.10;11.80;;;11.70;99.90;;;;;;5035700;28;20810;-48
2021/10/26 06:23:56;;;;;;;12.40;11.27;;;11.70;99.90;;;;;;5035420;28;20428;-48
2021/10/26 06:26:22;;;;;;;11.97;10.80;;;11.60;99.90;;;;;;5035412;28;20399;-54
2021/10/26 06:28:48;;;;;;;13.30;11.90;;;11.60;99.90;;;;;;5035737;28;20956;-54
2021/10/26 06:31:14;;;;;;;13.90;12.40;;;11.60;99.90;;;;;;5035579;28;20168;-51
2021/10/26 06:33:40;;;;;;;11.67;10.47;;;11.70;99.90;;;;;;5017644;28;20428;-55
2021/10/26 06:36:06;;;;;;;12.87;11.57;;;11.70;99.90;;;;;;5035798;28;20411;-54
2021/10/26 06:38:31;;;;;;;12.57;11.37;;;11.80;99.90;;;;;;5035417;28;20213;-46
2021/10/26 06:40:57;;;;;;;11.50;10.37;;;11.90;99.90;;;;;;5037309;28;20509;-55
2021/10/26 06:43:23;;;;;;;13.90;12.50;;;11.90;99.90;;;;;;5034934;28;20199;-52
2021/10/26 06:45:48;;;;;;;12.90;10.73;;;11.90;99.90;;;;;;5035044;28;20208;-56
2021/10/26 06:48:14;;;;;;;12.73;11.50;;;11.90;99.90;;;;;;5027639;28;20253;-48
2021/10/26 06:50:41;;;;;;;10.20;9.30;;;11.90;99.90;;;;;;5035179;28;20247;-47
2021/10/26 06:53:06;;;;;;;12.53;11.23;;;12.00;99.90;;;;;;5035030;28;20442;-47
2021/10/26 06:55:32;;;;;;;11.77;10.57;;;12.10;99.90;;;;;;5035599;28;20409;-56
2021/10/26 06:57:58;;;;;;;14.17;11.87;;;12.20;99.90;;;;;;5034869;28;20720;-52
2021/10/26 07:00:25;;;;;;;14.33;12.50;;;12.20;99.90;;;;;;5034974;28;20164;-52
2021/10/26 07:02:52;;;;;;;16.60;13.50;;;12.10;99.90;;;;;;5035986;28;20398;-52
2021/10/26 07:05:22;;;;;;;11.53;10.50;;;12.10;99.90;;;;;;5034732;28;20469;-53
2021/10/26 07:07:49;;;;;;;13.10;11.60;;;12.20;99.90;;;;;;5035415;28;20390;-56
2021/10/26 07:10:15;;;;;;;11.60;10.07;;;12.30;99.90;;;;;;5017423;28;20414;-56
2021/10/26 07:12:41;;;;;;;12.37;11.07;;;12.30;99.90;;;;;;5014936;28;20875;-53
2021/10/26 07:15:09;;;;;;;12.07;10.87;;;12.40;99.90;;;;;;5015070;28;20494;-53
2021/10/26 07:17:35;;;;;;;13.50;11.93;;;12.50;99.90;;;;;;5015107;28;20446;-48
2021/10/26 07:20:03;;;;;;;14.90;13.30;;;12.50;99.90;;;;;;5015008;28;20450;-48
2021/10/26 07:22:29;;;;;;;15.30;12.77;;;12.60;99.90;;;;;;5014936;28;20414;-48
2021/10/26 07:24:56;;;;;;;12.47;11.27;;;12.60;99.90;;;;;;5014746;28;20776;-48
2021/10/26 07:27:23;;;;;;;12.13;11.03;;;12.50;99.90;;;;;;5014542;28;20167;-47
2021/10/26 07:29:49;;;;;;;15.90;14.13;;;12.40;99.90;;;;;;5014814;28;20409;-47
2021/10/26 07:32:15;;;;;;;11.97;10.20;;;12.40;99.90;;;;;;5014689;28;20945;-48
2021/10/26 07:34:41;;;;;;;11.30;10.20;;;12.60;99.90;;;;;;5014479;28;20951;-50
2021/10/26 07:37:06;;;;;;;11.17;9.43;;;12.70;99.90;;;;;;5014919;28;20524;-47
2021/10/26 07:39:35;;;;;;;12.90;11.00;;;12.80;99.90;;;;;;5028653;28;20451;-47
2021/10/26 07:42:01;;;;;;;12.57;11.33;;;12.90;99.90;;;;;;5034300;28;20159;-48
2021/10/26 07:44:29;;;;;;;10.80;9.70;;;13.00;99.90;;;;;;5034023;28;20442;-47
2021/10/26 07:46:59;;;;;;;11.40;9.60;;;13.10;99.90;;;;;;5033954;28;20444;-46
2021/10/26 07:49:25;;;;;;;11.13;10.03;;;13.10;99.90;;;;;;5033965;28;20830;-45
2021/10/26 07:51:51;;;;;;;11.17;10.07;;;13.20;99.90;;;;;;5034143;28;20778;-47
2021/10/26 07:54:18;;;;;;;12.63;10.47;;;13.10;99.90;;;;;;5034291;28;20429;-48
2021/10/26 07:56:44;;;;;;;12.10;9.53;;;13.20;99.90;;;;;;5033935;28;20450;-48
2021/10/26 07:59:10;;;;;;;9.87;8.93;;;13.50;99.90;;;;;;5033886;28;20463;-47
2021/10/26 08:01:35;;;;;;;10.00;9.00;;;13.60;99.90;;;;;;5033761;28;20400;-48
2021/10/26 08:04:01;;;;;;;9.53;8.53;;;13.70;99.90;;;;;;5033829;28;20196;-56
2021/10/26 08:06:27;;;;;;;13.83;9.20;;;13.90;99.90;;;;;;5033660;28;20168;-55
2021/10/26 08:08:52;;;;;;;13.63;12.10;;;13.90;99.90;;;;;;5034473;28;20180;-54
2021/10/26 08:11:18;;;;;;;11.90;10.70;;;13.80;99.90;;;;;;5034154;28;20491;-57
2021/10/26 08:13:45;;;;;;;12.83;11.50;;;13.90;99.90;;;;;;5034307;28;20198;-55
2021/10/26 08:16:11;;;;;;;13.47;12.07;;;14.00;99.90;;;;;;5035658;28;20166;-54
2021/10/26 08:18:37;;;;;;;13.80;12.00;;;14.10;99.90;;;;;;5035113;28;20452;-51
2021/10/26 08:21:02;;;;;;;12.77;11.47;;;14.20;99.90;;;;;;5034160;28;20504;-55
2021/10/26 08:23:28;;;;;;;12.50;11.17;;;14.40;99.90;;;;;;5033654;28;20193;-55
2021/10/26 08:25:57;;;;;;;15.57;13.43;;;14.30;99.90;;;;;;5033603;28;20177;-52
2021/10/26 08:28:24;;;;;;;11.50;10.40;;;14.30;99.90;;;;;;5033744;28;20172;-47
2021/10/26 08:31:04;;;;;;;13.03;11.63;;;14.30;99.90;;;;;;5033470;28;20495;-48
2021/10/26 08:35:58;;;;;;;13.40;11.40;;;14.80;99.90;;;;;;5034108;28;20413;-48
2021/10/26 08:38:24;;;;;;;14.07;12.43;;;14.80;99.90;;;;;;5024359;28;20452;-46
2021/10/26 08:40:50;;;;;;;13.93;12.63;;;14.60;99.90;;;;;;5033591;28;20400;-48
2021/10/26 08:43:26;;;;;;;11.60;10.40;;;14.80;99.90;;;;;;5033135;28;20453;-48
2021/10/26 08:45:53;;;;;;;11.83;10.53;;;15.00;99.90;;;;;;5033167;28;20405;-47
2021/10/26 08:48:24;;;;;;;12.20;10.93;;;15.20;99.90;;;;;;5033556;28;20487;-54
2021/10/26 08:50:59;;;;;;;11.80;10.70;;;15.30;99.90;;;;;;5033513;28;20384;-56
2021/10/26 08:53:26;;;;;;;13.13;11.63;;;15.40;99.90;;;;;;5033228;28;20429;-53
2021/10/26 08:55:57;;;;;;;11.57;10.37;;;15.40;99.90;;;;;;5033212;28;20417;-56
2021/10/26 08:58:25;;;;;;;11.23;10.13;;;15.50;99.90;;;;;;5033440;28;20951;-50
2021/10/26 09:00:51;;;;;;;12.70;10.30;;;15.70;99.90;;;;;;5015492;28;20411;-48
2021/10/26 09:03:22;;;;;;;10.87;9.77;;;15.80;99.90;;;;;;5033374;28;20453;-48
2021/10/26 09:05:49;;;;;;;15.03;11.40;;;15.90;99.90;;;;;;5031835;28;20404;-46
2021/10/26 09:08:22;;;;;;;11.97;10.70;;;15.70;99.90;;;;;;5032636;28;20789;-48
2021/10/26 09:10:50;;;;;;;14.27;10.47;;;15.80;99.90;;;;;;5034882;28;20400;-48
2021/10/26 09:19:09;;;;;;;14.23;10.60;;;16.80;99.90;;;;;;5035676;28;20384;-48
2021/10/26 09:21:35;;;;;;;12.20;11.00;;;16.80;99.90;;;;;;5035684;28;20462;-48
2021/10/26 09:24:07;;;;;;;12.07;10.93;;;16.90;99.90;;;;;;5033428;28;20438;-49
2021/10/26 09:26:50;;;;;;;12.27;10.73;;;17.00;99.90;;;;;;5033032;28;20158;-45
2021/10/26 09:29:18;;;;;;;9.77;6.80;;;16.60;99.90;;;;;;5032871;28;20373;-48
2021/10/26 09:31:44;;;;;;;8.20;6.67;;;16.40;99.90;;;;;;5032760;28;20481;-48
2021/10/26 09:34:14;;;;;;;7.20;6.50;;;16.10;99.90;;;;;;5032809;28;20421;-48
2021/10/26 09:36:40;;;;;;;8.33;6.20;;;16.30;99.90;;;;;;5032677;28;20499;-47
2021/10/26 09:39:13;;;;;;;8.93;5.87;;;16.30;99.90;;;;;;5032559;28;20417;-48
2021/10/26 09:41:51;;;;;;;9.70;5.77;;;16.50;99.90;;;;;;5032869;28;20414;-47
2021/10/26 09:44:20;;;;;;;5.67;4.70;;;16.60;99.90;;;;;;5032320;28;20469;-48
2021/10/26 09:46:56;;;;;;;6.87;5.00;;;16.50;99.90;;;;;;5032346;28;20633;-48
2021/10/26 09:49:23;;;;;;;6.40;5.10;;;16.70;99.90;;;;;;5032582;28;20407;-47
2021/10/26 09:51:52;;;;;;;4.87;4.37;;;16.70;99.90;;;;;;5032690;28;20493;-49
2021/10/26 09:54:19;;;;;;;5.57;4.53;;;16.70;99.90;;;;;;5032764;28;20468;-48
2021/10/26 09:57:10;;;;;;;6.40;4.67;;;16.80;99.90;;;;;;5036211;28;20463;-48
2021/10/26 09:59:37;;;;;;;4.70;3.90;;;16.70;99.90;;;;;;5035832;28;20898;-48
2021/10/26 10:02:03;;;;;;;5.63;4.10;;;16.90;99.90;;;;;;5018115;28;20418;-48
2021/10/26 10:04:35;;;;;;;3.53;3.23;;;17.00;99.90;;;;;;5036069;28;20425;-48
2021/10/26 10:07:01;;;;;;;5.40;3.90;;;16.90;99.90;;;;;;5036309;28;20414;-49
2021/10/26 10:09:26;;;;;;;7.70;4.17;;;16.60;99.90;;;;;;5036007;28;20410;-48
2021/10/26 10:12:07;;;;;;;4.87;4.40;;;16.90;99.90;;;;;;5035789;28;20647;-49
2021/10/26 10:14:39;;;;;;;4.43;3.00;;;17.20;99.90;;;;;;5035763;28;20694;-49
2021/10/26 10:17:09;;;;;;;7.60;3.80;;;16.70;99.90;;;;;;5035693;28;20441;-48
2021/10/26 10:19:36;;;;;;;4.13;2.53;;;17.10;99.90;;;;;;5035946;28;20779;-48
2021/10/26 10:22:08;;;;;;;3.50;2.87;;;17.30;99.90;;;;;;5035968;28;20403;-47
2021/10/26 10:24:41;;;;;;;3.40;2.83;;;17.30;99.90;;;;;;5035646;28;20414;-47
2021/10/26 10:27:07;;;;;;;5.60;2.80;;;17.40;99.90;;;;;;5035920;28;20386;-46
2021/10/26 10:29:39;;;;;;;4.33;2.93;;;17.80;99.90;;;;;;5035533;28;20402;-50
2021/10/26 10:32:06;;;;;;;4.20;3.47;;;18.30;99.90;;;;;;5035301;28;20565;-47
2021/10/26 10:34:32;;;;;;;10.67;7.10;;;18.70;99.90;;;;;;5035681;28;20426;-47
2021/10/26 10:37:00;;;;;;;6.97;4.40;;;18.80;99.90;;;;;;5035237;28;20474;-46
2021/10/26 10:39:34;;;;;;;5.13;3.30;;;18.80;99.90;;;;;;5035404;28;20409;-49
2021/10/26 10:42:11;;;;;;;8.00;3.13;;;18.50;99.90;;;;;;5035775;28;20427;-56
2021/10/26 10:44:39;;;;;;;3.77;3.10;;;18.80;99.90;;;;;;5035040;28;20444;-56
2021/10/26 10:47:09;;;;;;;4.33;3.47;;;19.10;99.90;;;;;;5035432;28;20747;-49
2021/10/26 10:49:35;;;;;;;3.13;2.70;;;18.50;99.90;;;;;;5035669;28;20932;-52
2021/10/26 10:52:08;;;;;;;2.97;2.57;;;18.00;99.90;;;;;;5035389;28;20402;-52
2021/10/26 10:54:37;;;;;;;5.80;3.20;;;17.70;99.90;;;;;;5035223;28;20183;-54
2021/10/26 10:57:33;;;;;;;3.50;2.33;;;17.80;99.90;;;;;;5035070;28;20441;-54
2021/10/26 11:00:21;;;;;;;4.37;3.10;;;17.70;99.90;;;;;;5017277;28;20415;-53
2021/10/26 11:02:53;;;;;;;4.20;3.20;;;17.60;99.90;;;;;;5034582;28;20390;-55
2021/10/26 11:05:41;;;;;;;5.40;3.10;;;17.40;99.90;;;;;;5034698;28;20414;-56
2021/10/26 11:08:07;;;;;;;3.47;3.00;;;17.70;99.90;;;;;;5034543;28;20394;-48
2021/10/26 11:10:51;;;;;;;5.27;2.63;;;17.90;99.90;;;;;;5035050;28;20802;-55
2021/10/26 11:13:23;;;;;;;5.43;3.23;;;18.10;99.90;;;;;;5035048;28;20195;-52
2021/10/26 11:15:52;;;;;;;6.00;3.00;;;18.10;99.90;;;;;;5032751;28;20410;-55
2021/10/26 11:18:33;;;;;;;6.10;3.10;;;18.20;99.90;;;;;;5015261;28;20545;-51
2021/10/26 11:21:06;;;;;;;5.97;2.87;;;18.30;99.90;;;;;;5034658;28;20409;-47
2021/10/26 11:23:35;;;;;;;4.70;3.30;;;18.10;99.90;;;;;;5034903;28;20410;-44
2021/10/26 11:26:03;;;;;;;5.27;3.10;;;18.20;99.90;;;;;;5034745;28;20394;-47
2021/10/26 11:28:29;;;;;;;7.47;3.70;;;18.10;99.90;;;;;;5034481;28;20402;-45
2021/10/26 11:30:59;;;;;;;5.20;2.93;;;17.90;99.90;;;;;;5023309;28;20434;-47
2021/10/26 11:33:24;;;;;;;5.60;3.43;;;17.90;99.90;;;;;;5014573;28;20187;-47
2021/10/26 11:35:56;;;;;;;5.80;3.23;;;18.00;99.90;;;;;;5014653;28;20914;-47
2021/10/26 11:38:27;;;;;;;5.87;3.20;;;18.20;99.90;;;;;;5018390;28;20203;-53
2021/10/26 11:41:01;;;;;;;3.43;3.13;;;18.20;99.90;;;;;;5034642;28;20393;-54
2021/10/26 11:43:37;;;;;;;5.20;3.13;;;18.00;99.90;;;;;;5034436;28;20519;-52
2021/10/26 11:46:03;;;;;;;4.57;3.30;;;18.10;99.90;;;;;;5045292;23;20572;-58
2021/10/26 11:48:42;;;;;;;8.37;3.23;;;18.10;99.90;;;;;;5034444;28;20418;-57
2021/10/26 11:51:29;;;;;;;3.30;2.93;;;17.70;99.90;;;;;;5034624;28;20398;-59
2021/10/26 11:54:05;;;;;;;4.20;2.97;;;18.10;99.90;;;;;;5034547;28;20813;-57
2021/10/26 11:56:36;;;;;;;6.00;3.00;;;17.90;99.90;;;;;;5034077;28;20918;-55
2021/10/26 11:59:05;;;;;;;6.83;2.90;;;17.70;99.90;;;;;;5034970;28;20402;-58
2021/10/26 12:01:47;;;;;;;4.80;3.30;;;17.60;99.90;;;;;;5033957;28;20406;-57
2021/10/26 12:04:18;;;;;;;4.33;2.70;;;17.30;99.90;;;;;;5033838;28;20422;-54
2021/10/26 12:06:48;;;;;;;5.53;2.90;;;17.00;99.90;;;;;;5033768;28;20422;-57
2021/10/26 12:09:16;;;;;;;4.07;2.87;;;17.00;99.90;;;;;;5034256;28;20410;-59
2021/10/26 12:11:45;;;;;;;2.90;2.60;;;17.00;99.90;;;;;;5034191;28;20471;-59
2021/10/26 12:14:18;;;;;;;3.07;2.60;;;17.00;99.90;;;;;;5034310;28;20825;-59
2021/10/26 12:17:06;;;;;;;5.80;2.90;;;16.80;99.90;;;;;;5033567;28;20445;-57
2021/10/26 12:19:54;;;;;;;3.23;2.93;;;16.80;99.90;;;;;;5034241;28;20740;-57
2021/10/26 12:22:24;;;;;;;5.70;3.10;;;16.80;99.90;;;;;;5033878;28;20387;-58
2021/10/26 12:24:59;;;;;;;6.87;2.60;;;16.70;99.90;;;;;;5033592;28;20428;-58
2021/10/26 12:27:28;;;;;;;5.20;2.83;;;16.90;99.90;;;;;;5034126;28;20485;-57
2021/10/26 12:29:54;;;;;;;4.20;3.60;;;16.90;99.90;;;;;;5033899;28;20412;-57
2021/10/26 12:32:23;;;;;;;3.10;2.60;;;16.80;99.90;;;;;;5033713;28;20899;-56
2021/10/26 12:34:49;;;;;;;4.80;2.63;;;17.00;99.90;;;;;;5033774;28;20183;-59
2021/10/26 12:37:36;;;;;;;4.73;3.10;;;17.20;99.90;;;;;;5033115;28;21017;-57
2021/10/26 12:40:10;;;;;;;6.57;3.50;;;17.30;99.90;;;;;;5033305;28;20410;-59
2021/10/26 12:42:43;;;;;;;5.03;2.90;;;17.60;99.90;;;;;;5033482;28;20469;-57
2021/10/26 12:45:15;;;;;;;4.43;3.50;;;17.50;99.90;;;;;;5033307;28;20447;-57
2021/10/26 12:48:12;;;;;;;6.00;3.77;;;17.30;99.90;;;;;;5033431;28;20485;-57
2021/10/26 12:50:52;;;;;;;7.13;3.77;;;17.20;99.90;;;;;;5033036;28;20414;-58
2021/10/26 12:53:41;;;;;;;7.60;4.50;;;17.20;99.90;;;;;;5033456;28;20752;-59